createdAt,value
2022-10-22T00:00:09.826Z,18.45
2022-10-22T00:01:10.016Z,18.47
2022-10-22T00:02:10.175Z,18.47
2022-10-22T00:03:10.418Z,18.47
2022-10-22T00:04:10.525Z,18.45
2022-10-22T00:05:10.687Z,18.47
2022-10-22T00:06:10.855Z,18.47
2022-10-22T00:07:11.026Z,18.50
2022-10-22T00:08:11.209Z,18.49
2022-10-22T00:09:11.479Z,18.52
2022-10-22T00:10:11.555Z,18.50
2022-10-22T00:11:11.726Z,18.50
2022-10-22T00:12:11.998Z,18.53
2022-10-22T00:13:12.075Z,18.52
2022-10-22T00:14:12.237Z,18.50
2022-10-22T00:15:12.435Z,18.50
2022-10-22T00:16:12.625Z,18.52
2022-10-22T00:17:12.795Z,18.49
2022-10-22T00:18:12.965Z,18.50
2022-10-22T00:19:13.224Z,18.49
2022-10-22T00:20:13.398Z,18.49
2022-10-22T00:21:13.495Z,18.45
2022-10-22T00:22:13.666Z,18.43
2022-10-22T00:23:13.826Z,18.41
2022-10-22T00:24:14.003Z,18.38
2022-10-22T00:25:14.224Z,18.37
2022-10-22T00:26:14.358Z,18.35
2022-10-22T00:27:14.517Z,18.34
2022-10-22T00:28:14.677Z,18.31
2022-10-22T00:29:14.836Z,18.31
2022-10-22T00:30:15.008Z,18.29
2022-10-22T00:31:15.440Z,18.28
2022-10-22T00:32:15.356Z,18.26
2022-10-22T00:33:15.540Z,18.26
2022-10-22T00:34:15.706Z,18.25
2022-10-22T00:35:15.876Z,18.22
2022-10-22T00:36:16.036Z,18.22
2022-10-22T00:37:16.215Z,18.19
2022-10-22T00:38:16.379Z,18.19
2022-10-22T00:39:16.541Z,18.18
2022-10-22T00:40:16.708Z,18.15
2022-10-22T00:41:16.877Z,18.15
2022-10-22T00:42:17.037Z,18.11
2022-10-22T00:43:17.214Z,18.10
2022-10-22T00:44:17.377Z,18.07
2022-10-22T00:45:17.558Z,18.07
2022-10-22T00:46:17.716Z,18.07
2022-10-22T00:47:17.878Z,18.05
2022-10-22T00:48:18.038Z,18.07
2022-10-22T00:49:18.207Z,18.05
2022-10-22T00:50:18.385Z,18.04
2022-10-22T00:51:18.546Z,18.07
2022-10-22T00:52:18.708Z,18.03
2022-10-22T00:53:18.868Z,18.04
2022-10-22T00:54:19.029Z,18.04
2022-10-22T00:55:19.197Z,18.04
2022-10-22T00:56:19.357Z,18.04
2022-10-22T00:57:19.556Z,18.03
2022-10-22T00:58:19.707Z,18.03
2022-10-22T00:59:19.890Z,18.03
2022-10-22T01:00:20.054Z,18.03
2022-10-22T01:01:20.307Z,18.01
2022-10-22T01:02:20.389Z,18.03
2022-10-22T01:03:20.560Z,18.04
2022-10-22T01:04:20.718Z,18.04
2022-10-22T01:05:20.898Z,18.05
2022-10-22T01:06:21.059Z,18.05
2022-10-22T01:07:21.219Z,18.05
2022-10-22T01:08:21.377Z,18.04
2022-10-22T01:09:21.569Z,18.04
2022-10-22T01:10:21.738Z,18.04
2022-10-22T01:11:21.898Z,18.04
2022-10-22T01:12:22.058Z,18.04
2022-10-22T01:13:22.248Z,18.03
2022-10-22T01:14:22.410Z,18.03
2022-10-22T01:15:22.628Z,18.04
2022-10-22T01:16:22.779Z,18.07
2022-10-22T01:17:22.947Z,18.07
2022-10-22T01:18:23.100Z,18.07
2022-10-22T01:19:23.261Z,18.10
2022-10-22T01:20:23.438Z,18.08
2022-10-22T01:21:23.599Z,18.10
2022-10-22T01:22:23.761Z,18.10
2022-10-22T01:23:23.928Z,18.11
2022-10-22T01:24:24.088Z,18.13
2022-10-22T01:25:24.269Z,18.11
2022-10-22T01:27:24.619Z,18.10
2022-10-22T01:28:24.771Z,18.15
2022-10-22T01:29:24.968Z,18.13
2022-10-22T01:30:25.150Z,18.13
2022-10-22T01:31:25.311Z,18.13
2022-10-22T01:32:25.470Z,18.11
2022-10-22T01:33:25.649Z,18.13
2022-10-22T01:34:25.823Z,18.15
2022-10-22T01:35:26.012Z,18.15
2022-10-22T01:36:26.136Z,18.15
2022-10-22T01:37:26.300Z,18.15
2022-10-22T01:38:26.457Z,18.15
2022-10-22T01:39:26.639Z,18.15
2022-10-22T01:40:26.770Z,18.15
2022-10-22T01:41:26.937Z,18.15
2022-10-22T01:42:27.090Z,18.16
2022-10-22T01:43:27.257Z,18.15
2022-10-22T01:44:27.503Z,18.13
2022-10-22T01:45:27.590Z,18.10
2022-10-22T01:46:27.751Z,18.08
2022-10-22T01:47:27.910Z,18.08
2022-10-22T01:48:28.070Z,18.07
2022-10-22T01:49:28.260Z,18.07
2022-10-22T01:50:28.390Z,18.07
2022-10-22T01:51:28.549Z,18.07
2022-10-22T01:52:28.709Z,18.07
2022-10-22T01:53:28.877Z,18.08
2022-10-22T01:54:29.050Z,18.05
2022-10-22T01:55:29.209Z,18.04
2022-10-22T01:56:29.377Z,18.04
2022-10-22T01:57:29.540Z,18.04
2022-10-22T01:58:29.710Z,18.04
2022-10-22T01:59:29.887Z,18.05
2022-10-22T02:00:30.134Z,18.05
2022-10-22T02:01:30.220Z,18.03
2022-10-22T02:02:30.378Z,18.01
2022-10-22T02:03:30.553Z,18.00
2022-10-22T02:04:30.720Z,17.98
2022-10-22T02:05:30.899Z,17.97
2022-10-22T02:06:31.060Z,17.94
2022-10-22T02:07:31.225Z,17.95
2022-10-22T02:08:31.390Z,17.95
2022-10-22T02:09:31.580Z,17.94
2022-10-22T02:10:31.741Z,17.90
2022-10-22T02:11:31.901Z,17.92
2022-10-22T02:12:32.066Z,17.90
2022-10-22T02:13:32.230Z,17.89
2022-10-22T02:14:32.400Z,17.90
2022-10-22T02:15:32.608Z,17.90
2022-10-22T02:16:32.761Z,17.90
2022-10-22T02:17:32.926Z,17.90
2022-10-22T02:18:36.360Z,17.92
2022-10-22T02:19:34.283Z,17.90
2022-10-22T02:20:33.462Z,17.90
2022-10-22T02:21:33.631Z,17.89
2022-10-22T02:22:33.796Z,17.90
2022-10-22T02:23:33.986Z,17.89
2022-10-22T02:24:34.122Z,17.89
2022-10-22T02:25:34.282Z,17.89
2022-10-22T02:26:34.452Z,17.89
2022-10-22T02:27:34.643Z,17.89
2022-10-22T02:28:34.793Z,17.87
2022-10-22T02:29:34.970Z,17.87
2022-10-22T02:30:35.121Z,17.87
2022-10-22T02:31:35.324Z,17.87
2022-10-22T02:32:35.511Z,17.87
2022-10-22T02:33:35.671Z,17.90
2022-10-22T02:34:35.837Z,17.87
2022-10-22T02:35:35.998Z,17.89
2022-10-22T02:36:36.151Z,17.87
2022-10-22T02:37:36.351Z,17.86
2022-10-22T02:38:36.501Z,17.89
2022-10-22T02:39:36.701Z,17.87
2022-10-22T02:40:36.852Z,17.89
2022-10-22T02:41:37.013Z,17.89
2022-10-22T02:42:37.234Z,17.90
2022-10-22T02:43:37.369Z,17.89
2022-10-22T02:44:37.542Z,17.92
2022-10-22T02:45:37.722Z,17.90
2022-10-22T02:46:37.902Z,17.89
2022-10-22T02:47:38.083Z,17.90
2022-10-22T02:48:38.241Z,17.90
2022-10-22T02:49:38.404Z,17.94
2022-10-22T02:50:38.562Z,17.92
2022-10-22T02:51:38.752Z,17.95
2022-10-22T02:52:39.242Z,17.95
2022-10-22T02:53:39.060Z,17.95
2022-10-22T02:54:39.243Z,17.95
2022-10-22T02:55:39.421Z,17.95
2022-10-22T02:56:39.602Z,17.95
2022-10-22T02:57:39.984Z,17.95
2022-10-22T02:58:39.932Z,17.95
2022-10-22T02:59:40.094Z,17.95
2022-10-22T03:00:40.308Z,17.95
2022-10-22T03:01:40.456Z,17.94
2022-10-22T03:02:40.575Z,17.94
2022-10-22T03:03:40.732Z,17.95
2022-10-22T03:04:40.893Z,17.95
2022-10-22T03:05:41.053Z,17.94
2022-10-22T03:06:41.232Z,17.95
2022-10-22T03:07:41.741Z,17.92
2022-10-22T03:08:41.601Z,17.94
2022-10-22T03:09:41.742Z,17.95
2022-10-22T03:10:41.903Z,17.92
2022-10-22T03:11:42.082Z,17.92
2022-10-22T03:12:42.252Z,17.90
2022-10-22T03:13:42.414Z,17.90
2022-10-22T03:14:42.572Z,17.90
2022-10-22T03:15:42.732Z,17.92
2022-10-22T03:16:42.912Z,17.90
2022-10-22T03:17:43.180Z,17.87
2022-10-22T03:18:43.252Z,17.87
2022-10-22T03:19:43.413Z,17.87
2022-10-22T03:20:43.573Z,17.86
2022-10-22T03:21:43.753Z,17.85
2022-10-22T03:22:43.915Z,17.85
2022-10-22T03:23:44.077Z,17.86
2022-10-22T03:24:44.234Z,17.85
2022-10-22T03:25:44.401Z,17.83
2022-10-22T03:26:44.579Z,17.83
2022-10-22T03:27:44.732Z,17.82
2022-10-22T03:28:44.893Z,17.82
2022-10-22T03:29:45.055Z,17.80
2022-10-22T03:30:45.241Z,17.80
2022-10-22T03:31:45.413Z,17.80
2022-10-22T03:32:45.582Z,17.79
2022-10-22T03:33:45.742Z,17.76
2022-10-22T03:34:45.912Z,17.78
2022-10-22T03:35:46.082Z,17.76
2022-10-22T03:36:46.264Z,17.76
2022-10-22T03:37:46.433Z,17.76
2022-10-22T03:38:46.594Z,17.74
2022-10-22T03:39:46.756Z,17.74
2022-10-22T03:40:46.915Z,17.71
2022-10-22T03:41:47.096Z,17.72
2022-10-22T03:42:47.255Z,17.72
2022-10-22T03:43:47.414Z,17.72
2022-10-22T03:44:47.604Z,17.71
2022-10-22T03:45:47.794Z,17.76
2022-10-22T03:46:47.955Z,17.72
2022-10-22T03:47:48.105Z,17.74
2022-10-22T03:48:48.303Z,17.76
2022-10-22T03:49:48.455Z,17.72
2022-10-22T03:50:48.644Z,17.72
2022-10-22T03:51:48.784Z,17.72
2022-10-22T03:52:48.945Z,17.71
2022-10-22T03:53:49.108Z,17.74
2022-10-22T03:54:49.264Z,17.74
2022-10-22T03:55:49.444Z,17.74
2022-10-22T03:56:49.615Z,17.72
2022-10-22T03:57:49.775Z,17.74
2022-10-22T03:58:49.934Z,17.72
2022-10-22T03:59:50.095Z,17.74
2022-10-22T04:00:50.301Z,17.74
2022-10-22T04:01:50.444Z,17.76
2022-10-22T04:02:50.613Z,17.78
2022-10-22T04:03:50.764Z,17.74
2022-10-22T04:04:50.966Z,17.76
2022-10-22T04:05:51.141Z,17.74
2022-10-22T04:06:51.323Z,17.74
2022-10-22T04:07:51.492Z,17.74
2022-10-22T04:08:51.710Z,17.71
2022-10-22T04:09:51.836Z,17.72
2022-10-22T04:10:52.062Z,17.71
2022-10-22T04:11:52.185Z,17.71
2022-10-22T04:12:52.346Z,17.71
2022-10-22T04:13:52.504Z,17.71
2022-10-22T04:14:52.684Z,17.72
2022-10-22T04:15:52.865Z,17.72
2022-10-22T04:16:53.004Z,17.71
2022-10-22T04:17:53.165Z,17.72
2022-10-22T04:18:53.327Z,17.71
2022-10-22T04:19:53.504Z,17.71
2022-10-22T04:20:53.665Z,17.71
2022-10-22T04:21:53.827Z,17.74
2022-10-22T04:22:53.992Z,17.72
2022-10-22T04:23:54.147Z,17.74
2022-10-22T04:24:54.348Z,17.74
2022-10-22T04:25:54.495Z,17.72
2022-10-22T04:26:54.667Z,17.74
2022-10-22T04:27:54.845Z,17.74
2022-10-22T04:28:54.995Z,17.76
2022-10-22T04:29:55.177Z,17.76
2022-10-22T04:30:55.336Z,17.76
2022-10-22T04:31:55.494Z,17.78
2022-10-22T04:32:55.656Z,17.76
2022-10-22T04:33:55.825Z,17.78
2022-10-22T04:34:56.015Z,17.78
2022-10-22T04:35:56.185Z,17.78
2022-10-22T04:36:56.356Z,17.78
2022-10-22T04:37:56.528Z,17.78
2022-10-22T04:38:56.693Z,17.79
2022-10-22T04:39:58.217Z,17.76
2022-10-22T04:40:57.016Z,17.78
2022-10-22T04:41:57.185Z,17.76
2022-10-22T04:42:57.345Z,17.78
2022-10-22T04:43:57.516Z,17.78
2022-10-22T04:44:57.709Z,17.74
2022-10-22T04:46:58.017Z,17.72
2022-10-22T04:47:58.186Z,17.71
2022-10-22T04:48:58.346Z,17.71
2022-10-22T04:49:58.529Z,17.70
2022-10-22T04:50:58.696Z,17.70
2022-10-22T04:51:58.856Z,17.68
2022-10-22T04:52:59.036Z,17.70
2022-10-22T04:53:59.196Z,17.68
2022-10-22T04:54:59.376Z,17.67
2022-10-22T04:55:59.506Z,17.68
2022-10-22T04:56:59.690Z,17.68
2022-10-22T04:57:59.836Z,17.68
2022-10-22T04:59:00.033Z,17.67
2022-10-22T05:00:00.209Z,17.65
2022-10-22T05:01:00.444Z,17.64
2022-10-22T05:02:00.549Z,17.63
2022-10-22T05:03:00.711Z,17.64
2022-10-22T05:04:00.856Z,17.63
2022-10-22T05:05:01.041Z,17.64
2022-10-22T05:06:01.252Z,17.63
2022-10-22T05:07:01.366Z,17.63
2022-10-22T05:08:01.525Z,17.59
2022-10-22T05:09:01.758Z,17.60
2022-10-22T05:10:01.886Z,17.60
2022-10-22T05:11:02.067Z,17.60
2022-10-22T05:12:02.217Z,17.59
2022-10-22T05:13:02.417Z,17.59
2022-10-22T05:14:02.578Z,17.59
2022-10-22T05:15:02.787Z,17.57
2022-10-22T05:16:02.906Z,17.57
2022-10-22T05:17:03.068Z,17.56
2022-10-22T05:18:03.227Z,17.56
2022-10-22T05:19:03.389Z,17.57
2022-10-22T05:20:03.566Z,17.57
2022-10-22T05:21:03.734Z,17.57
2022-10-22T05:22:03.881Z,17.54
2022-10-22T05:23:04.213Z,17.54
2022-10-22T05:24:04.268Z,17.54
2022-10-22T05:25:04.427Z,17.54
2022-10-22T05:26:04.598Z,17.54
2022-10-22T05:27:04.856Z,17.52
2022-10-22T05:28:04.927Z,17.54
2022-10-22T05:29:05.129Z,17.54
2022-10-22T05:30:05.268Z,17.54
2022-10-22T05:31:05.457Z,17.52
2022-10-22T05:32:05.640Z,17.52
2022-10-22T05:33:05.806Z,17.54
2022-10-22T05:34:05.997Z,17.56
2022-10-22T05:35:06.186Z,17.54
2022-10-22T05:36:06.337Z,17.54
2022-10-22T05:37:06.507Z,17.54
2022-10-22T05:38:06.687Z,17.52
2022-10-22T05:39:06.884Z,17.54
2022-10-22T05:40:19.266Z,17.54
2022-10-22T05:41:08.191Z,17.52
2022-10-22T05:42:07.368Z,17.52
2022-10-22T05:43:07.539Z,17.52
2022-10-22T05:44:07.746Z,17.49
2022-10-22T05:45:07.918Z,17.49
2022-10-22T05:46:08.069Z,17.49
2022-10-22T05:47:08.258Z,17.49
2022-10-22T05:48:08.447Z,17.48
2022-10-22T05:49:08.662Z,17.49
2022-10-22T05:50:08.807Z,17.45
2022-10-22T05:51:08.998Z,17.45
2022-10-22T05:52:09.168Z,17.44
2022-10-22T05:53:09.365Z,17.44
2022-10-22T05:54:09.539Z,17.41
2022-10-22T05:55:09.686Z,17.41
2022-10-22T05:56:09.845Z,17.42
2022-10-22T05:57:10.044Z,17.42
2022-10-22T05:58:10.217Z,17.41
2022-10-22T05:59:10.416Z,17.41
2022-10-22T06:00:12.892Z,17.42
2022-10-22T06:01:11.728Z,17.39
2022-10-22T06:02:10.958Z,17.41
2022-10-22T06:03:11.068Z,17.41
2022-10-22T06:04:11.280Z,17.41
2022-10-22T06:05:11.425Z,17.42
2022-10-22T06:06:11.578Z,17.42
2022-10-22T06:07:11.768Z,17.42
2022-10-22T06:08:14.489Z,17.42
2022-10-22T06:09:13.213Z,17.44
2022-10-22T06:10:12.308Z,17.44
2022-10-22T06:11:12.489Z,17.44
2022-10-22T06:12:12.648Z,17.45
2022-10-22T06:13:12.799Z,17.46
2022-10-22T06:14:13.008Z,17.46
2022-10-22T06:15:13.156Z,17.45
2022-10-22T06:16:13.368Z,17.48
2022-10-22T06:17:13.536Z,17.49
2022-10-22T06:18:13.668Z,17.48
2022-10-22T06:19:13.889Z,17.48
2022-10-22T06:20:14.039Z,17.49
2022-10-22T06:21:14.231Z,17.49
2022-10-22T06:22:14.394Z,17.51
2022-10-22T06:23:14.559Z,17.52
2022-10-22T06:24:14.749Z,17.52
2022-10-22T06:25:14.912Z,17.54
2022-10-22T06:26:15.059Z,17.57
2022-10-22T06:27:15.241Z,17.60
2022-10-22T06:28:15.480Z,17.63
2022-10-22T06:29:15.591Z,17.65
2022-10-22T06:30:15.729Z,17.68
2022-10-22T06:31:15.917Z,17.68
2022-10-22T06:32:16.089Z,17.72
2022-10-22T06:33:16.287Z,17.76
2022-10-22T06:34:16.460Z,17.79
2022-10-22T06:35:16.640Z,17.80
2022-10-22T06:36:16.812Z,17.80
2022-10-22T06:37:16.980Z,17.86
2022-10-22T06:38:17.149Z,17.86
2022-10-22T06:39:17.331Z,17.90
2022-10-22T06:40:17.460Z,17.89
2022-10-22T06:41:17.659Z,17.95
2022-10-22T06:42:17.839Z,17.97
2022-10-22T06:43:18.019Z,18.00
2022-10-22T06:44:18.225Z,18.01
2022-10-22T06:45:18.399Z,18.04
2022-10-22T06:46:19.968Z,18.07
2022-10-22T06:47:18.755Z,18.10
2022-10-22T06:48:18.954Z,18.11
2022-10-22T06:49:19.111Z,18.15
2022-10-22T06:50:19.282Z,18.19
2022-10-22T06:51:19.469Z,18.23
2022-10-22T06:52:19.649Z,18.26
2022-10-22T06:54:20.012Z,18.34
2022-10-22T06:55:20.161Z,18.37
2022-10-22T06:56:20.339Z,18.40
2022-10-22T06:57:20.531Z,18.40
2022-10-22T06:58:20.712Z,18.43
2022-10-22T06:59:20.920Z,18.45
2022-10-22T07:00:21.137Z,18.47
2022-10-22T07:01:21.258Z,18.49
2022-10-22T07:02:21.400Z,18.52
2022-10-22T07:03:21.610Z,18.52
2022-10-22T07:04:21.761Z,18.55
2022-10-22T07:05:21.943Z,18.56
2022-10-22T07:06:22.127Z,18.56
2022-10-22T07:07:22.300Z,18.60
2022-10-22T07:08:22.481Z,18.62
2022-10-22T07:09:22.704Z,18.66
2022-10-22T07:10:24.930Z,18.70
2022-10-22T07:11:23.004Z,18.75
2022-10-22T07:12:23.191Z,18.77
2022-10-22T07:13:23.349Z,18.80
2022-10-22T07:14:23.517Z,18.86
2022-10-22T07:15:23.676Z,18.89
2022-10-22T07:16:28.054Z,18.93
2022-10-22T07:17:25.022Z,18.96
2022-10-22T07:18:24.176Z,19.00
2022-10-22T07:19:24.352Z,19.07
2022-10-22T07:20:24.547Z,19.09
2022-10-22T07:21:24.685Z,19.12
2022-10-22T07:22:24.825Z,19.16
2022-10-22T07:23:25.011Z,19.21
2022-10-22T07:24:25.692Z,19.24
2022-10-22T07:25:25.352Z,19.30
2022-10-22T07:26:25.534Z,19.31
2022-10-22T07:27:25.719Z,19.34
2022-10-22T07:28:25.913Z,19.39
2022-10-22T07:29:26.082Z,19.41
2022-10-22T07:30:26.264Z,19.45
2022-10-22T07:31:26.421Z,19.51
2022-10-22T07:32:26.563Z,19.54
2022-10-22T07:33:26.772Z,19.59
2022-10-22T07:34:26.904Z,19.62
2022-10-22T07:35:27.082Z,19.64
2022-10-22T07:36:27.288Z,19.66
2022-10-22T07:37:27.463Z,19.69
2022-10-22T07:38:27.624Z,19.70
2022-10-22T07:39:27.775Z,19.71
2022-10-22T07:40:27.970Z,19.74
2022-10-22T07:41:28.122Z,19.76
2022-10-22T07:43:28.492Z,19.81
2022-10-22T07:44:28.677Z,19.82
2022-10-22T07:45:28.832Z,19.85
2022-10-22T07:46:29.040Z,19.85
2022-10-22T07:47:29.177Z,19.85
2022-10-22T07:48:29.363Z,19.86
2022-10-22T07:49:29.513Z,19.89
2022-10-22T07:50:29.695Z,19.89
2022-10-22T07:51:29.883Z,19.91
2022-10-22T07:52:30.064Z,19.91
2022-10-22T07:53:30.265Z,19.92
2022-10-22T07:54:30.426Z,19.92
2022-10-22T07:55:30.574Z,19.92
2022-10-22T07:56:30.757Z,19.96
2022-10-22T07:57:30.942Z,20.00
2022-10-22T07:58:31.115Z,20.02
2022-10-22T07:59:31.274Z,20.04
2022-10-22T08:00:31.435Z,20.03
2022-10-22T08:01:31.668Z,20.06
2022-10-22T08:02:31.784Z,20.09
2022-10-22T08:03:31.949Z,20.10
2022-10-22T08:04:32.113Z,20.11
2022-10-22T08:05:32.283Z,20.14
2022-10-22T08:06:32.478Z,20.11
2022-10-22T08:07:32.692Z,20.11
2022-10-22T08:08:32.887Z,20.13
2022-10-22T08:09:33.014Z,20.13
2022-10-22T08:10:33.194Z,20.11
2022-10-22T08:11:33.375Z,20.13
2022-10-22T08:12:33.585Z,20.11
2022-10-22T08:13:33.765Z,20.11
2022-10-22T08:14:33.959Z,20.11
2022-10-22T08:15:34.168Z,20.10
2022-10-22T08:16:34.265Z,20.11
2022-10-22T08:17:34.448Z,20.10
2022-10-22T08:18:34.582Z,20.11
2022-10-22T08:19:34.762Z,20.13
2022-10-22T08:20:34.958Z,20.14
2022-10-22T08:21:35.185Z,20.16
2022-10-22T08:22:35.304Z,20.16
2022-10-22T08:23:35.447Z,20.18
2022-10-22T08:24:35.635Z,20.18
2022-10-22T08:25:35.799Z,20.19
2022-10-22T08:26:35.947Z,20.24
2022-10-22T08:27:36.217Z,20.25
2022-10-22T08:28:36.294Z,20.26
2022-10-22T08:29:36.466Z,20.29
2022-10-22T08:30:36.655Z,20.32
2022-10-22T08:31:36.849Z,20.40
2022-10-22T08:32:37.066Z,20.40
2022-10-22T08:33:37.215Z,20.48
2022-10-22T08:34:37.394Z,20.51
2022-10-22T08:35:37.588Z,20.56
2022-10-22T08:36:37.761Z,20.59
2022-10-22T08:37:38.142Z,20.65
2022-10-22T08:38:38.117Z,20.67
2022-10-22T08:39:38.253Z,20.72
2022-10-22T08:40:38.501Z,20.75
2022-10-22T08:41:38.661Z,20.78
2022-10-22T08:42:39.057Z,20.81
2022-10-22T08:43:38.980Z,20.88
2022-10-22T08:44:39.146Z,20.92
2022-10-22T08:45:39.424Z,20.96
2022-10-22T08:46:39.508Z,21.02
2022-10-22T08:47:39.678Z,21.05
2022-10-22T08:48:39.913Z,21.09
2022-10-22T08:49:42.090Z,21.12
2022-10-22T08:50:40.221Z,21.15
2022-10-22T08:51:40.426Z,21.20
2022-10-22T08:52:40.904Z,21.24
2022-10-22T08:53:40.739Z,21.25
2022-10-22T08:54:40.915Z,21.27
2022-10-22T08:55:41.099Z,21.30
2022-10-22T08:56:41.300Z,21.33
2022-10-22T08:57:41.437Z,21.35
2022-10-22T08:58:41.633Z,21.37
2022-10-22T08:59:41.808Z,21.40
2022-10-22T09:00:41.998Z,21.43
2022-10-22T09:01:42.199Z,21.48
2022-10-22T09:02:42.698Z,21.51
2022-10-22T09:03:42.508Z,21.55
2022-10-22T09:04:42.689Z,21.60
2022-10-22T09:05:42.944Z,21.62
2022-10-22T09:06:43.100Z,21.67
2022-10-22T09:07:43.637Z,21.72
2022-10-22T09:08:43.488Z,21.76
2022-10-22T09:09:43.615Z,21.83
2022-10-22T09:10:43.813Z,21.92
2022-10-22T09:11:43.964Z,21.96
2022-10-22T09:12:44.111Z,22.02
2022-10-22T09:13:44.290Z,22.13
2022-10-22T09:14:44.472Z,22.18
2022-10-22T09:15:46.531Z,22.26
2022-10-22T09:16:44.852Z,22.30
2022-10-22T09:17:45.407Z,22.39
2022-10-22T09:18:45.209Z,22.44
2022-10-22T09:19:45.391Z,22.50
2022-10-22T09:20:45.579Z,22.53
2022-10-22T09:21:45.792Z,22.59
2022-10-22T09:22:45.949Z,22.63
2022-10-22T09:23:46.091Z,22.69
2022-10-22T09:24:46.280Z,22.80
2022-10-22T09:25:46.461Z,22.91
2022-10-22T09:26:46.651Z,23.03
2022-10-22T09:27:46.801Z,23.15
2022-10-22T09:28:47.003Z,23.25
2022-10-22T09:29:47.152Z,23.43
2022-10-22T09:30:47.394Z,23.56
2022-10-22T09:31:47.598Z,23.77
2022-10-22T09:32:47.672Z,23.96
2022-10-22T09:33:47.841Z,24.11
2022-10-22T09:34:48.043Z,24.20
2022-10-22T09:35:48.192Z,24.20
2022-10-22T09:36:48.418Z,24.13
2022-10-22T09:37:48.553Z,24.05
2022-10-22T09:38:48.734Z,23.96
2022-10-22T09:39:48.914Z,23.91
2022-10-22T09:40:49.095Z,23.81
2022-10-22T09:41:49.288Z,23.76
2022-10-22T09:42:49.436Z,23.69
2022-10-22T09:43:49.613Z,23.68
2022-10-22T09:44:49.797Z,23.65
2022-10-22T09:45:49.974Z,23.63
2022-10-22T09:46:50.173Z,23.62
2022-10-22T09:48:01.418Z,23.61
2022-10-22T09:48:51.535Z,23.59
2022-10-22T09:49:50.718Z,23.59
2022-10-22T09:50:50.907Z,23.55
2022-10-22T09:51:51.065Z,23.51
2022-10-22T09:52:51.214Z,23.48
2022-10-22T09:53:51.395Z,23.50
2022-10-22T09:54:51.589Z,23.54
2022-10-22T09:55:51.838Z,23.59
2022-10-22T09:56:51.955Z,23.62
2022-10-22T09:57:52.119Z,23.62
2022-10-22T09:58:52.264Z,23.62
2022-10-22T09:59:52.445Z,23.61
2022-10-22T10:00:52.645Z,23.61
2022-10-22T10:01:52.816Z,23.58
2022-10-22T10:02:53.025Z,23.59
2022-10-22T10:03:53.155Z,23.62
2022-10-22T10:04:53.335Z,23.63
2022-10-22T10:05:53.526Z,23.66
2022-10-22T10:06:53.676Z,23.66
2022-10-22T10:07:53.857Z,23.66
2022-10-22T10:08:54.085Z,23.68
2022-10-22T10:09:54.199Z,23.65
2022-10-22T10:10:54.396Z,23.68
2022-10-22T10:11:54.557Z,23.63
2022-10-22T10:12:54.780Z,23.61
2022-10-22T10:13:54.907Z,23.59
2022-10-22T10:14:55.085Z,23.56
2022-10-22T10:15:55.275Z,23.59
2022-10-22T10:16:55.454Z,23.59
2022-10-22T10:17:55.617Z,23.58
2022-10-22T10:18:55.808Z,23.55
2022-10-22T10:19:59.969Z,23.51
2022-10-22T10:20:57.209Z,23.47
2022-10-22T10:21:56.366Z,23.43
2022-10-22T10:22:56.549Z,23.40
2022-10-22T10:23:56.742Z,23.39
2022-10-22T10:24:56.897Z,23.39
2022-10-22T10:25:57.108Z,23.37
2022-10-22T10:26:57.259Z,23.27
2022-10-22T10:27:57.430Z,23.17
2022-10-22T10:28:57.609Z,23.15
2022-10-22T10:29:57.811Z,23.12
2022-10-22T10:30:57.999Z,23.12
2022-10-22T10:31:58.138Z,23.13
2022-10-22T10:32:58.318Z,23.12
2022-10-22T10:33:58.499Z,23.10
2022-10-22T10:34:58.688Z,23.08
2022-10-22T10:35:58.892Z,23.08
2022-10-22T10:36:59.068Z,23.13
2022-10-22T10:37:59.218Z,23.23
2022-10-22T10:38:59.399Z,23.28
2022-10-22T10:39:59.591Z,23.36
2022-10-22T10:40:59.823Z,23.44
2022-10-22T10:41:59.930Z,23.46
2022-10-22T10:43:00.130Z,23.48
2022-10-22T10:44:00.280Z,23.46
2022-10-22T10:45:00.479Z,23.46
2022-10-22T10:46:00.641Z,23.43
2022-10-22T10:47:00.814Z,23.43
2022-10-22T10:48:01.019Z,23.43
2022-10-22T10:49:01.181Z,23.43
2022-10-22T10:50:01.399Z,23.48
2022-10-22T10:51:01.536Z,23.54
2022-10-22T10:52:01.682Z,23.55
2022-10-22T10:53:01.887Z,23.56
2022-10-22T10:54:02.046Z,23.61
2022-10-22T10:55:02.191Z,23.61
2022-10-22T10:56:02.887Z,23.62
2022-10-22T10:57:02.552Z,23.56
2022-10-22T10:58:02.740Z,23.51
2022-10-22T10:59:02.912Z,23.54
2022-10-22T11:00:03.093Z,23.41
2022-10-22T11:01:03.292Z,23.41
2022-10-22T11:02:03.442Z,23.32
2022-10-22T11:03:03.629Z,23.28
2022-10-22T11:04:03.802Z,23.21
2022-10-22T11:05:03.996Z,23.18
2022-10-22T11:06:04.194Z,23.13
2022-10-22T11:07:11.517Z,23.08
2022-10-22T11:08:05.524Z,23.02
2022-10-22T11:09:04.787Z,22.98
2022-10-22T11:10:04.872Z,22.90
2022-10-22T11:11:05.203Z,22.90
2022-10-22T11:12:05.222Z,22.87
2022-10-22T11:13:05.403Z,22.83
2022-10-22T11:14:05.583Z,22.83
2022-10-22T11:15:05.776Z,22.81
2022-10-22T11:16:05.963Z,22.80
2022-10-22T11:17:06.128Z,22.80
2022-10-22T11:18:06.295Z,22.78
2022-10-22T11:19:06.473Z,22.78
2022-10-22T11:20:06.653Z,22.76
2022-10-22T11:21:06.856Z,22.76
2022-10-22T11:22:06.985Z,22.73
2022-10-22T11:23:19.645Z,22.73
2022-10-22T11:24:08.345Z,22.70
2022-10-22T11:25:07.525Z,22.68
2022-10-22T11:26:07.731Z,22.66
2022-10-22T11:27:07.874Z,22.66
2022-10-22T11:28:11.257Z,22.68
2022-10-22T11:29:08.257Z,22.66
2022-10-22T11:30:08.436Z,22.66
2022-10-22T11:31:08.638Z,22.62
2022-10-22T11:32:08.785Z,22.63
2022-10-22T11:33:08.997Z,22.63
2022-10-22T11:34:32.069Z,22.63
2022-10-22T11:35:10.346Z,22.62
2022-10-22T11:36:09.504Z,22.62
2022-10-22T11:37:09.685Z,22.63
2022-10-22T11:38:09.871Z,22.65
2022-10-22T11:39:10.054Z,22.66
2022-10-22T11:40:10.256Z,22.69
2022-10-22T11:41:10.436Z,22.69
2022-10-22T11:42:10.578Z,22.72
2022-10-22T11:43:10.766Z,22.72
2022-10-22T11:44:10.936Z,22.75
2022-10-22T11:45:11.138Z,22.75
2022-10-22T11:46:11.314Z,22.75
2022-10-22T11:47:11.498Z,22.73
2022-10-22T11:48:11.717Z,22.75
2022-10-22T11:49:11.867Z,22.75
2022-10-22T11:50:12.036Z,22.75
2022-10-22T11:51:12.178Z,22.76
2022-10-22T11:52:12.326Z,22.76
2022-10-22T11:53:12.562Z,22.76
2022-10-22T11:54:12.688Z,22.73
2022-10-22T11:55:12.889Z,22.73
2022-10-22T11:56:13.040Z,22.72
2022-10-22T11:57:13.216Z,22.72
2022-10-22T11:58:13.417Z,22.72
2022-10-22T11:59:13.588Z,22.73
2022-10-22T12:00:13.795Z,22.72
2022-10-22T12:01:13.929Z,22.73
2022-10-22T12:02:14.109Z,22.75
2022-10-22T12:03:14.321Z,22.76
2022-10-22T12:04:14.557Z,22.80
2022-10-22T12:05:14.649Z,22.78
2022-10-22T12:06:14.789Z,22.80
2022-10-22T12:07:14.991Z,22.80
2022-10-22T12:08:15.851Z,22.80
2022-10-22T12:09:15.316Z,22.78
2022-10-22T12:10:18.303Z,22.80
2022-10-22T12:11:15.629Z,22.83
2022-10-22T12:12:15.802Z,22.80
2022-10-22T12:13:15.983Z,22.81
2022-10-22T12:14:16.201Z,22.80
2022-10-22T12:15:16.379Z,22.83
2022-10-22T12:16:23.609Z,22.85
2022-10-22T12:17:17.699Z,22.88
2022-10-22T12:18:16.913Z,22.88
2022-10-22T12:19:17.050Z,22.90
2022-10-22T12:20:17.232Z,22.93
2022-10-22T12:21:17.360Z,22.93
2022-10-22T12:22:17.550Z,22.96
2022-10-22T12:23:17.731Z,22.99
2022-10-22T12:24:17.920Z,23.05
2022-10-22T12:25:18.126Z,23.05
2022-10-22T12:26:18.311Z,23.06
2022-10-22T12:27:22.227Z,23.05
2022-10-22T12:28:18.645Z,23.05
2022-10-22T12:29:18.831Z,23.05
2022-10-22T12:30:19.062Z,23.06
2022-10-22T12:31:19.192Z,23.09
2022-10-22T12:32:19.389Z,23.09
2022-10-22T12:33:19.548Z,23.09
2022-10-22T12:34:19.721Z,23.09
2022-10-22T12:35:19.921Z,23.10
2022-10-22T12:36:20.103Z,23.13
2022-10-22T12:37:20.273Z,23.12
2022-10-22T12:38:20.461Z,23.10
2022-10-22T12:39:20.654Z,23.09
2022-10-22T12:40:20.852Z,23.09
2022-10-22T12:41:21.022Z,23.12
2022-10-22T12:42:21.213Z,23.10
2022-10-22T12:43:21.382Z,23.10
2022-10-22T12:44:21.568Z,23.09
2022-10-22T12:45:21.762Z,23.10
2022-10-22T12:46:21.912Z,23.13
2022-10-22T12:47:22.094Z,23.15
2022-10-22T12:48:22.273Z,23.15
2022-10-22T12:49:22.453Z,23.15
2022-10-22T12:50:22.663Z,23.12
2022-10-22T12:51:22.833Z,23.15
2022-10-22T12:52:22.956Z,23.17
2022-10-22T12:53:23.134Z,23.17
2022-10-22T12:54:23.314Z,23.21
2022-10-22T12:55:23.513Z,23.23
2022-10-22T12:56:23.654Z,23.24
2022-10-22T12:57:23.834Z,23.24
2022-10-22T12:58:24.004Z,23.24